Time;durP1;ratioP1;P1;durP2;ratioP2;P2;SDS_P1;SDS_P2;PMS_P1;PMS_P2;Temp;Humidity;BMP_temperature;BMP_pressure;BME280_temperature;BME280_humidity;BME280_pressure;Samples;Min_cycle;Max_cycle;Signal;HPM_P1;HPM_P2
2024/02/01 00:01:10;;;;;;;18.25;10.50;;;;;;;6.03;100.00;102225.69;5071468;28;20063;-51
2024/02/01 00:03:39;;;;;;;22.88;11.70;;;;;;;6.05;100.00;102214.28;5068546;28;20518;-51
2024/02/01 00:06:07;;;;;;;18.05;11.45;;;;;;;6.06;100.00;102222.97;5069814;28;21105;-46
2024/02/01 00:08:38;;;;;;;15.98;11.35;;;;;;;6.04;100.00;102222.16;5072113;28;20090;-47
2024/02/01 00:11:07;;;;;;;18.13;12.07;;;;;;;6.07;100.00;102222.09;5069476;28;20492;-47
2024/02/01 00:13:35;;;;;;;17.58;11.38;;;;;;;6.08;100.00;102221.16;5068868;28;20110;-47
2024/02/01 00:16:05;;;;;;;20.10;12.35;;;;;;;6.04;100.00;102222.16;5072336;28;20520;-48
2024/02/01 00:18:33;;;;;;;20.92;12.68;;;;;;;6.04;100.00;102222.16;5072241;28;20048;-48
2024/02/01 00:21:02;;;;;;;20.83;13.82;;;;;;;6.07;100.00;102222.94;5071486;28;20563;-46
2024/02/01 00:23:30;;;;;;;19.27;13.00;;;;;;;6.09;100.00;102225.50;5072230;28;20044;-47
2024/02/01 00:25:58;;;;;;;21.10;13.07;;;;;;;6.09;100.00;102220.28;5072058;28;20041;-48
2024/02/01 00:28:26;;;;;;;23.90;13.00;;;;;;;6.12;100.00;102224.56;5072401;28;20119;-49
2024/02/01 00:30:54;;;;;;;19.02;13.23;;;;;;;6.13;100.00;102221.94;5070706;28;20056;-47
2024/02/01 00:33:24;;;;;;;20.70;13.80;;;;;;;6.14;100.00;102217.59;5072019;28;20499;-45
2024/02/01 00:35:52;;;;;;;20.48;13.63;;;;;;;6.15;100.00;102203.59;5070690;28;20049;-46
2024/02/01 00:38:21;;;;;;;23.75;14.38;;;;;;;6.17;100.00;102192.22;5071740;28;20047;-45
2024/02/01 00:40:49;;;;;;;23.20;14.07;;;;;;;6.22;100.00;102190.34;5071765;28;20045;-45
2024/02/01 00:43:17;;;;;;;23.13;14.20;;;;;;;6.21;100.00;102187.78;5072475;28;20053;-46
2024/02/01 00:45:45;;;;;;;26.90;15.30;;;;;;;6.21;100.00;102201.69;5071999;28;20041;-47
2024/02/01 00:48:13;;;;;;;26.27;15.65;;;;;;;6.23;100.00;102197.31;5071893;28;20110;-48
2024/02/01 00:50:43;;;;;;;23.85;15.18;;;;;;;6.29;100.00;102184.97;5071953;28;20519;-45
2024/02/01 00:53:11;;;;;;;22.75;14.38;;;;;;;6.27;100.00;102195.44;5071936;28;20499;-45
2024/02/01 00:55:41;;;;;;;23.27;15.25;;;;;;;6.30;100.00;102186.69;5072068;28;20048;-46
2024/02/01 00:58:09;;;;;;;25.20;15.15;;;;;;;6.31;100.00;102181.41;5071836;28;20045;-46
2024/02/01 01:00:37;;;;;;;26.77;15.68;;;;;;;6.34;100.00;102180.47;5071960;28;20052;-45
2024/02/01 01:03:05;;;;;;;23.20;15.23;;;;;;;6.32;100.00;102185.75;5071632;28;20052;-46
2024/02/01 01:05:34;;;;;;;24.50;15.82;;;;;;;6.34;100.00;102183.97;5071886;28;20047;-45
2024/02/01 01:08:04;;;;;;;26.77;15.45;;;;;;;6.39;100.00;102176.88;5067838;28;20083;-45
2024/02/01 01:10:32;;;;;;;21.50;15.10;;;;;;;6.40;100.00;102189.00;5069478;28;20040;-46
2024/02/01 01:13:00;;;;;;;26.52;15.68;;;;;;;6.40;100.00;102181.19;5068458;28;20083;-45
2024/02/01 01:15:29;;;;;;;22.48;15.27;;;;;;;6.42;100.00;102188.97;5066939;28;20047;-45
2024/02/01 01:17:57;;;;;;;23.42;14.70;;;;;;;6.41;100.00;102185.50;5068593;28;20053;-46
2024/02/01 01:20:25;;;;;;;22.85;14.07;;;;;;;6.45;100.00;102172.34;5069160;28;20052;-46
2024/02/01 01:22:53;;;;;;;23.30;14.68;;;;;;;6.47;100.00;102178.41;5071778;28;20059;-44
2024/02/01 01:25:23;;;;;;;21.45;14.77;;;;;;;6.49;100.00;102179.22;5071773;28;20041;-47
2024/02/01 01:27:51;;;;;;;23.10;14.30;;;;;;;6.51;100.00;102180.03;5069827;28;20044;-46
2024/02/01 01:30:19;;;;;;;24.75;15.30;;;;;;;6.50;100.00;102160.88;5066870;28;20037;-46
2024/02/01 01:32:47;;;;;;;22.10;15.20;;;;;;;6.51;100.00;102173.06;5073409;28;20095;-54
2024/02/01 01:35:16;;;;;;;24.02;16.20;;;;;;;6.52;100.00;102180.00;5074640;28;20040;-54
2024/02/01 01:37:46;;;;;;;25.75;16.70;;;;;;;6.59;100.00;102172.84;5072971;28;20130;-53
2024/02/01 01:40:14;;;;;;;23.60;16.13;;;;;;;6.59;100.00;102168.47;5071261;28;20040;-54
2024/02/01 01:42:46;;;;;;;24.20;15.45;;;;;;;6.60;100.00;102171.97;5073897;28;20044;-54
2024/02/01 01:45:14;;;;;;;22.30;15.10;;;;;;;6.62;100.00;102179.75;5074664;28;20037;-55
2024/02/01 01:47:46;;;;;;;23.38;14.80;;;;;;;6.63;100.00;102184.94;5074567;28;20044;-54
2024/02/01 01:50:14;;;;;;;22.17;14.15;;;;;;;6.67;100.00;102175.28;5074752;28;20041;-54
2024/02/01 01:52:46;;;;;;;21.27;15.10;;;;;;;6.69;100.00;102183.91;5074829;28;20044;-55
2024/02/01 01:55:14;;;;;;;22.27;15.15;;;;;;;6.72;100.00;102178.59;5074742;28;20057;-54
2024/02/01 01:57:43;;;;;;;23.25;15.25;;;;;;;6.72;100.00;102174.25;5072274;28;20040;-55
2024/02/01 02:00:14;;;;;;;24.20;14.45;;;;;;;6.76;100.00;102185.44;5070321;28;20660;-54
2024/02/01 02:02:44;;;;;;;22.17;15.30;;;;;;;6.84;100.00;102188.72;5072839;28;20127;-55
2024/02/01 02:05:12;;;;;;;22.88;15.18;;;;;;;6.84;100.00;102188.72;5074523;28;20044;-54
2024/02/01 02:07:40;;;;;;;23.70;14.70;;;;;;;6.87;100.00;102183.41;5074565;28;20403;-55
2024/02/01 02:10:14;;;;;;;20.40;14.82;;;;;;;6.88;100.00;102189.50;5074485;28;20055;-54
2024/02/01 02:12:44;;;;;;;24.40;14.05;;;;;;;6.90;100.00;102191.16;5073784;28;20052;-55
2024/02/01 02:15:16;;;;;;;22.35;14.00;;;;;;;6.94;100.00;102192.78;5070027;28;20037;-55
2024/02/01 02:17:44;;;;;;;20.50;13.95;;;;;;;6.96;100.00;102205.81;5071477;28;20088;-55
2024/02/01 02:20:19;;;;;;;20.33;13.10;;;;;;;6.97;100.00;102199.69;5071040;28;20040;-55
2024/02/01 02:22:52;;;;;;;20.50;13.13;;;;;;;7.00;100.00;102199.59;5074015;28;20064;-54
2024/02/01 02:25:21;;;;;;;19.70;13.27;;;;;;;7.02;100.00;102212.63;5073121;28;20044;-54
2024/02/01 02:27:49;;;;;;;19.83;13.57;;;;;;;7.03;100.00;102214.34;5071099;28;20052;-55
2024/02/01 02:30:18;;;;;;;19.88;12.85;;;;;;;7.07;100.00;102216.84;5067804;28;20052;-55
2024/02/01 02:32:46;;;;;;;20.00;13.65;;;;;;;7.11;100.00;102220.22;5071198;28;20047;-54
2024/02/01 02:35:16;;;;;;;19.38;13.85;;;;;;;7.10;100.00;102223.72;5073735;28;20055;-55
2024/02/01 02:37:46;;;;;;;19.17;13.48;;;;;;;7.09;100.00;102216.81;5073991;28;20123;-55
2024/02/01 02:40:18;;;;;;;20.67;13.60;;;;;;;7.14;100.00;102219.28;5072680;28;20453;-55
2024/02/01 02:42:46;;;;;;;19.00;13.02;;;;;;;7.16;100.00;102212.22;5070647;28;20098;-55
2024/02/01 02:45:15;;;;;;;22.05;13.45;;;;;;;7.15;100.00;102215.78;5068760;28;20059;-55
2024/02/01 02:47:44;;;;;;;17.90;13.45;;;;;;;7.17;100.00;102209.59;5070590;28;20130;-55
2024/02/01 02:50:13;;;;;;;20.85;13.48;;;;;;;7.27;100.00;102218.88;5070078;28;20051;-55
2024/02/01 02:52:44;;;;;;;18.77;13.02;;;;;;;7.24;100.00;102223.34;5069980;28;20049;-55
2024/02/01 02:55:12;;;;;;;18.80;12.68;;;;;;;7.23;100.00;102219.88;5069570;28;20403;-55
2024/02/01 02:57:42;;;;;;;19.73;13.57;;;;;;;7.24;100.00;102224.22;5069941;28;20106;-55
2024/02/01 03:00:18;;;;;;;17.50;12.30;;;;;;;7.26;100.00;102234.63;5069011;28;20332;-55
2024/02/01 03:02:48;;;;;;;17.08;11.77;;;;;;;7.27;100.00;102234.59;5073470;28;20094;-55
2024/02/01 03:05:18;;;;;;;20.60;11.60;;;;;;;7.31;100.00;102230.13;5071898;28;20419;-46
2024/02/01 03:07:47;;;;;;;23.70;12.73;;;;;;;7.31;100.00;102232.75;5069673;28;20527;-50
2024/02/01 03:10:15;;;;;;;21.90;11.70;;;;;;;7.35;100.00;102239.59;5069767;28;20064;-50
2024/02/01 03:12:45;;;;;;;20.70;11.07;;;;;;;7.36;100.00;102238.72;5072136;28;20162;-47
2024/02/01 03:15:13;;;;;;;20.60;10.98;;;;;;;7.34;100.00;102239.66;5068585;28;20086;-46
2024/02/01 03:17:42;;;;;;;24.98;11.60;;;;;;;7.36;100.00;102245.69;5070602;28;20040;-46
2024/02/01 03:20:22;;;;;;;24.35;10.68;;;;;;;7.41;100.00;102251.66;5073257;28;20048;-46
2024/02/01 03:22:54;;;;;;;26.60;10.65;;;;;;;7.45;100.00;102255.88;5073016;28;20178;-46
2024/02/01 03:25:29;;;;;;;19.63;11.10;;;;;;;7.44;100.00;102262.03;5072833;28;20040;-48
2024/02/01 03:28:00;;;;;;;21.30;9.82;;;;;;;7.42;100.00;102269.91;5070162;28;20036;-47
2024/02/01 03:30:31;;;;;;;28.83;10.45;;;;;;;7.42;100.00;102271.69;5070297;28;20514;-47
2024/02/01 03:33:01;;;;;;;24.02;9.95;;;;;;;7.45;100.00;102279.44;5072791;28;20086;-45
2024/02/01 03:35:31;;;;;;;22.65;8.88;;;;;;;7.46;100.00;102291.63;5073343;28;20459;-45
2024/02/01 03:38:02;;;;;;;20.90;6.53;;;;;;;7.38;100.00;102284.00;5073125;28;20414;-45
2024/02/01 03:40:31;;;;;;;19.73;6.57;;;;;;;7.36;100.00;102288.44;5072791;28;20122;-45
2024/02/01 03:43:01;;;;;;;20.63;5.03;;;;;;;7.35;100.00;102285.84;5072725;28;20492;-46
2024/02/01 03:45:29;;;;;;;16.88;4.95;;;;;;;7.27;100.00;102297.38;5072890;28;20486;-45
2024/02/01 03:47:57;;;;;;;18.90;5.05;;;;;;;7.24;100.00;102296.59;5072673;28;20048;-46
2024/02/01 03:50:26;;;;;;;15.30;3.65;;;;;;;7.21;100.00;102302.81;5069391;28;20052;-45
2024/02/01 03:52:54;;;;;;;19.70;4.05;;;;;;;7.18;100.00;102302.88;5070027;28;20044;-45
2024/02/01 03:55:22;;;;;;;20.42;3.70;;;;;;;7.16;100.00;102319.50;5072567;28;20059;-48
2024/02/01 03:57:50;;;;;;;13.82;3.83;;;;;;;7.12;100.00;102329.22;5072145;28;20051;-47
2024/02/01 04:00:28;;;;;;;14.70;3.65;;;;;;;7.07;100.00;102338.94;5072151;28;20102;-46
2024/02/01 04:02:57;;;;;;;16.55;3.33;;;;;;;7.03;100.00;102337.31;5071560;28;20056;-45
2024/02/01 04:05:26;;;;;;;15.57;3.83;;;;;;;7.03;100.00;102338.16;5068294;28;20044;-46
2024/02/01 04:07:55;;;;;;;17.73;3.35;;;;;;;7.03;100.00;102355.63;5070126;28;20050;-45
2024/02/01 04:10:23;;;;;;;16.48;3.55;;;;;;;7.00;100.00;102367.03;5072407;28;20047;-45
2024/02/01 04:12:51;;;;;;;18.25;3.63;;;;;;;6.91;100.00;102377.72;5072131;28;20063;-47
2024/02/01 04:15:20;;;;;;;16.52;2.97;;;;;;;6.90;100.00;102379.47;5072495;28;20068;-45
2024/02/01 04:17:49;;;;;;;16.00;3.00;;;;;;;6.93;100.00;102378.53;5072226;28;20040;-45
2024/02/01 04:20:18;;;;;;;15.75;3.08;;;;;;;6.87;100.00;102382.19;5072226;28;20094;-45
2024/02/01 04:22:49;;;;;;;15.43;3.08;;;;;;;6.86;100.00;102396.16;5072164;28;20119;-45
2024/02/01 04:25:18;;;;;;;14.27;3.30;;;;;;;6.78;100.00;102403.31;5072131;28;20053;-45
2024/02/01 04:27:49;;;;;;;15.20;2.70;;;;;;;6.71;100.00;102417.44;5072397;28;20044;-45
2024/02/01 04:30:20;;;;;;;15.88;3.08;;;;;;;6.64;100.00;102431.53;5072091;28;20057;-46
2024/02/01 04:32:49;;;;;;;16.20;2.80;;;;;;;6.63;100.00;102425.47;5072163;28;20131;-45
2024/02/01 04:35:18;;;;;;;17.70;2.60;;;;;;;6.56;100.00;102434.34;5070179;28;20492;-45
2024/02/01 04:37:52;;;;;;;13.32;2.50;;;;;;;6.49;100.00;102441.47;5069111;28;20044;-45
2024/02/01 04:40:22;;;;;;;12.55;2.08;;;;;;;6.44;100.00;102451.16;5072211;28;20095;-46
2024/02/01 04:42:52;;;;;;;13.85;2.92;;;;;;;6.38;100.00;102453.91;5071969;28;20041;-45
2024/02/01 04:45:21;;;;;;;18.40;2.75;;;;;;;6.29;100.00;102457.59;5072039;28;20508;-49
2024/02/01 04:47:50;;;;;;;14.75;2.42;;;;;;;6.29;100.00;102454.13;5071561;28;20385;-54
2024/02/01 04:50:18;;;;;;;15.57;2.50;;;;;;;6.18;100.00;102473.47;5069031;28;20143;-54
2024/02/01 04:52:46;;;;;;;19.30;2.83;;;;;;;6.09;100.00;102477.16;5068418;28;20072;-53
2024/02/01 04:55:14;;;;;;;17.83;3.58;;;;;;;6.00;100.00;102479.94;5068174;28;20059;-53
2024/02/01 04:57:43;;;;;;;19.90;2.67;;;;;;;5.97;100.00;102485.22;5068754;28;20136;-53
2024/02/01 05:00:17;;;;;;;13.38;2.25;;;;;;;5.92;100.00;102487.88;5067556;28;21141;-54
2024/02/01 05:02:48;;;;;;;14.75;2.13;;;;;;;5.84;100.00;102502.84;5069079;28;20060;-54
2024/02/01 05:05:17;;;;;;;13.13;2.63;;;;;;;5.73;100.00;102500.44;5068351;28;20491;-53
2024/02/01 05:07:46;;;;;;;13.52;2.42;;;;;;;5.71;100.00;102501.34;5073919;28;20041;-53
2024/02/01 05:10:14;;;;;;;17.42;2.42;;;;;;;5.59;100.00;102513.75;5071984;28;20685;-53
2024/02/01 05:12:43;;;;;;;15.05;2.53;;;;;;;5.55;100.00;102519.91;5073788;28;20128;-53
2024/02/01 05:15:12;;;;;;;16.00;2.60;;;;;;;5.49;100.00;102520.00;5075325;28;20052;-53
2024/02/01 05:17:41;;;;;;;16.75;3.08;;;;;;;5.50;100.00;102524.34;5071381;28;20524;-53
2024/02/01 05:20:12;;;;;;;20.45;3.15;;;;;;;5.43;100.00;102530.53;5072702;28;20127;-54
2024/02/01 05:22:42;;;;;;;19.55;2.65;;;;;;;5.35;100.00;102535.88;5075444;28;20048;-55
2024/02/01 05:25:23;;;;;;;17.67;2.43;;;;;;;5.29;100.00;102540.34;5074132;28;20036;-54
2024/02/01 05:27:54;;;;;;;17.75;2.92;;;;;;;5.21;100.00;102536.09;5072241;28;20044;-53
2024/02/01 05:30:23;;;;;;;14.32;2.25;;;;;;;5.14;100.00;102542.31;5070063;28;20059;-54
2024/02/01 05:32:52;;;;;;;17.95;2.20;;;;;;;5.10;100.00;102535.41;5070727;28;20082;-54
2024/02/01 05:35:27;;;;;;;13.32;3.08;;;;;;;5.04;100.00;102538.97;5071968;28;20119;-53
2024/02/01 05:37:57;;;;;;;12.52;2.15;;;;;;;5.00;100.00;102539.03;5072085;28;20101;-53
2024/02/01 05:40:25;;;;;;;12.73;2.42;;;;;;;4.96;100.00;102537.34;5071826;28;20051;-53
2024/02/01 05:42:53;;;;;;;19.67;2.70;;;;;;;4.93;100.00;102540.03;5071795;28;20044;-52
2024/02/01 05:45:22;;;;;;;14.52;2.45;;;;;;;4.85;100.00;102543.59;5070378;28;20083;-53
2024/02/01 05:47:52;;;;;;;22.40;2.97;;;;;;;4.81;100.00;102543.66;5071302;28;20049;-54
2024/02/01 05:50:20;;;;;;;17.15;2.47;;;;;;;4.78;100.00;102549.75;5071431;28;20396;-54
2024/02/01 05:52:50;;;;;;;24.13;3.22;;;;;;;4.70;100.00;102549.88;5073655;28;20526;-52
2024/02/01 05:55:19;;;;;;;14.25;2.70;;;;;;;4.68;100.00;102558.59;5074965;28;20053;-53
2024/02/01 05:57:47;;;;;;;19.65;3.42;;;;;;;4.59;100.00;102563.94;5074762;28;20544;-53
2024/02/01 06:00:21;;;;;;;23.50;3.60;;;;;;;4.52;100.00;102565.75;5074868;28;20051;-53
2024/02/01 06:02:51;;;;;;;14.85;2.83;;;;;;;4.42;100.00;102575.44;5074682;28;20495;-53
2024/02/01 06:05:20;;;;;;;14.45;2.58;;;;;;;4.37;100.00;102574.59;5073480;28;20052;-54
2024/02/01 06:07:50;;;;;;;17.13;2.55;;;;;;;4.28;100.00;102585.13;5073595;28;20131;-53
2024/02/01 06:10:18;;;;;;;15.10;3.20;;;;;;;4.19;100.00;102589.56;5073685;28;20044;-54
2024/02/01 06:12:46;;;;;;;11.93;2.10;;;;;;;4.16;100.00;102599.13;5071868;28;20044;-54
2024/02/01 06:15:15;;;;;;;16.30;2.22;;;;;;;4.10;100.00;102607.88;5068650;28;20044;-54
2024/02/01 06:17:43;;;;;;;15.13;2.28;;;;;;;4.05;100.00;102614.88;5070561;28;20044;-53
2024/02/01 06:20:12;;;;;;;15.43;2.47;;;;;;;4.03;100.00;102621.84;5071985;28;20373;-53
2024/02/01 06:22:40;;;;;;;16.05;2.38;;;;;;;3.98;100.00;102626.22;5070181;28;20074;-54
2024/02/01 06:25:12;;;;;;;14.95;2.20;;;;;;;3.94;100.00;102621.91;5071206;28;20054;-52
2024/02/01 06:27:41;;;;;;;15.52;2.40;;;;;;;3.86;100.00;102625.47;5070957;28;20063;-54
2024/02/01 06:30:12;;;;;;;22.17;2.60;;;;;;;3.82;100.00;102634.16;5069590;28;20052;-53
2024/02/01 06:32:41;;;;;;;18.08;3.83;;;;;;;3.77;100.00;102635.94;5073524;28;20082;-53
2024/02/01 06:35:16;;;;;;;18.35;2.67;;;;;;;3.74;100.00;102633.38;5073976;28;20353;-50
2024/02/01 06:37:52;;;;;;;16.85;2.28;;;;;;;3.70;100.00;102640.31;5072974;28;20040;-52
2024/02/01 06:40:37;;;;;;;17.98;2.78;;;;;;;3.66;100.00;102648.19;5070375;28;20128;-52
2024/02/01 06:43:17;;;;;;;16.38;2.75;;;;;;;3.64;100.00;102655.13;5073571;28;20090;-52
2024/02/01 06:45:58;;;;;;;13.07;2.55;;;;;;;3.56;100.00;102647.38;5069503;28;20470;-52
2024/02/01 06:48:40;;;;;;;18.70;2.55;;;;;;;3.49;100.00;102643.97;5070285;28;20437;-53
2024/02/01 06:51:21;;;;;;;13.25;2.35;;;;;;;3.45;100.00;102644.84;5070664;28;20041;-52
2024/02/01 06:53:56;;;;;;;17.80;2.60;;;;;;;3.40;100.00;102646.63;5070716;28;20089;-53
2024/02/01 06:56:48;;;;;;;15.32;2.63;;;;;;;3.30;100.00;102657.94;5070913;28;20049;-53
2024/02/01 06:59:31;;;;;;;13.05;2.45;;;;;;;3.26;100.00;102648.44;5068935;28;20207;-53
2024/02/01 07:02:06;;;;;;;20.13;3.30;;;;;;;3.16;100.00;102640.69;5071416;28;20068;-53
2024/02/01 07:04:49;;;;;;;13.30;2.70;;;;;;;3.08;100.00;102641.59;5070351;28;20052;-53
2024/02/01 07:07:26;;;;;;;13.65;2.80;;;;;;;3.01;100.00;102646.84;5070275;28;20572;-53
2024/02/01 07:10:06;;;;;;;17.30;3.13;;;;;;;3.00;100.00;102657.22;5070266;28;20056;-51
2024/02/01 07:12:42;;;;;;;15.45;2.60;;;;;;;3.00;100.00;102671.09;5072663;28;20072;-51
2024/02/01 07:15:31;;;;;;;11.85;2.67;;;;;;;2.95;100.00;102674.59;5068971;28;20051;-54
2024/02/01 07:18:05;;;;;;;14.07;2.95;;;;;;;2.91;100.00;102685.88;5072247;28;20045;-54
2024/02/01 07:20:46;;;;;;;15.75;2.97;;;;;;;2.91;100.00;102696.28;5072146;28;20055;-53
2024/02/01 07:26:02;;;;;;;14.50;4.03;;;;;;;2.80;100.00;102707.56;5069935;28;20051;-53
2024/02/01 07:59:09;;;;;;;19.42;2.92;;;;;;;2.63;100.00;102769.97;5071079;28;20051;-52
2024/02/01 08:02:01;;;;;;;21.08;3.75;;;;;;;2.74;100.00;102779.44;5068399;28;20048;-45
2024/02/01 08:07:44;;;;;;;18.17;2.78;;;;;;;2.87;100.00;102769.03;5067048;28;20059;-53
2024/02/01 08:10:18;;;;;;;14.50;2.65;;;;;;;3.20;100.00;102779.34;5010398;28;20133;-52
2024/02/01 08:12:48;;;;;;;16.40;2.47;;;;;;;3.36;100.00;102782.78;5010548;28;20559;-51
2024/02/01 08:15:19;;;;;;;21.75;3.80;;;;;;;3.49;100.00;102787.06;5040210;28;20056;-52
2024/02/01 08:17:51;;;;;;;20.25;3.55;;;;;;;3.59;100.00;102787.03;5072509;28;20044;-53
2024/02/01 08:20:21;;;;;;;19.95;3.78;;;;;;;3.63;100.00;102786.97;5072434;28;20129;-52
2024/02/01 08:22:49;;;;;;;25.48;3.00;;;;;;;3.73;100.00;102793.84;5070461;28;20102;-53
2024/02/01 08:25:18;;;;;;;21.40;3.38;;;;;;;3.95;100.00;102798.09;5068916;28;20127;-54
2024/02/01 08:27:52;;;;;;;18.67;2.95;;;;;;;4.02;100.00;102802.38;5068331;28;20887;-52
2024/02/01 08:30:23;;;;;;;15.55;3.33;;;;;;;4.16;100.00;102799.66;5072490;28;20033;-52
2024/02/01 08:32:53;;;;;;;15.10;3.20;;;;;;;4.26;100.00;102797.88;5072433;28;20036;-54
2024/02/01 08:35:21;;;;;;;23.30;4.15;;;;;;;4.45;100.00;102802.06;5070688;28;20058;-53
2024/02/01 08:37:50;;;;;;;15.65;2.28;;;;;;;4.57;100.00;102801.97;5071850;28;20040;-53
2024/02/01 08:40:22;;;;;;;21.58;3.67;;;;;;;4.78;100.00;102809.59;5068515;28;20051;-53
2024/02/01 08:42:57;;;;;;;15.23;3.75;;;;;;;4.79;100.00;102817.41;5071976;28;20064;-54
2024/02/01 08:45:28;;;;;;;22.70;3.08;;;;;;;5.00;100.00;102831.97;5070990;28;20125;-53
2024/02/01 08:48:02;;;;;;;13.88;2.55;;;;;;;5.08;100.00;102837.13;5075159;28;20123;-53
2024/02/01 08:50:32;;;;;;;16.70;2.97;;;;;;;5.07;100.00;102844.09;5073218;28;20052;-54
2024/02/01 08:53:02;;;;;;;20.58;2.97;;;;;;;5.16;100.00;102843.13;5072536;28;20041;-53
2024/02/01 08:55:30;;;;;;;16.15;2.95;;;;;;;5.32;100.00;102840.38;5072469;28;20060;-53
2024/02/01 08:58:08;;;;;;;19.95;3.40;;;;;;;5.40;100.00;102847.22;5073172;28;20574;-53
2024/02/01 09:00:38;;;;;;;12.95;3.13;;;;;;;5.47;100.00;102853.22;5075343;28;20041;-53
2024/02/01 09:03:11;;;;;;;24.45;4.22;;;;;;;5.46;100.00;102846.28;5075897;28;20118;-54
2024/02/01 09:05:41;;;;;;;12.43;2.55;;;;;;;5.48;100.00;102852.34;5076020;28;20059;-53
2024/02/01 09:08:12;;;;;;;20.05;3.38;;;;;;;5.54;100.00;102854.03;5075836;28;20040;-53
2024/02/01 09:10:50;;;;;;;15.20;3.00;;;;;;;5.64;100.00;102854.78;5075870;28;20048;-54
2024/02/01 09:13:20;;;;;;;17.13;2.92;;;;;;;5.71;100.00;102851.19;5075675;28;20063;-54
2024/02/01 09:15:48;;;;;;;18.25;3.67;;;;;;;5.76;100.00;102846.78;5075789;28;20055;-54
2024/02/01 09:18:18;;;;;;;12.90;3.22;;;;;;;5.77;100.00;102856.34;5075594;28;20503;-54
2024/02/01 09:20:47;;;;;;;18.67;2.75;;;;;;;5.82;100.00;102866.72;5075640;28;20036;-55
2024/02/01 09:23:15;;;;;;;22.15;3.78;;;;;;;5.89;100.00;102874.47;5074321;28;20090;-54
2024/02/01 09:25:44;;;;;;;15.65;3.38;;;;;;;5.93;100.00;102884.00;5075529;28;20051;-53
2024/02/01 09:28:15;;;;;;;12.45;2.80;;;;;;;5.92;100.00;102881.41;5074939;28;20040;-48
2024/02/01 09:30:45;;;;;;;15.38;3.15;;;;;;;5.90;100.00;102878.81;5075025;28;20087;-49
2024/02/01 09:33:14;;;;;;;23.73;3.20;;;;;;;5.91;100.00;102892.72;5074904;28;20056;-45
2024/02/01 09:35:45;;;;;;;20.20;4.47;;;;;;;5.95;100.00;102894.41;5073873;28;20154;-45
2024/02/01 09:38:13;;;;;;;15.63;2.78;;;;;;;5.97;100.00;102892.66;5075287;28;20468;-45
2024/02/01 09:40:42;;;;;;;22.13;3.10;;;;;;;6.01;100.00;102888.28;5075245;28;20056;-45
2024/02/01 09:43:17;;;;;;;20.88;3.47;;;;;;;6.07;100.00;102890.81;5075614;28;20048;-46
2024/02/01 09:45:46;;;;;;;16.10;3.10;;;;;;;6.19;100.00;102895.88;5074713;28;20087;-46
2024/02/01 09:48:16;;;;;;;21.65;3.75;;;;;;;6.33;100.00;102886.97;5074650;28;20441;-45
2024/02/01 09:50:53;;;;;;;20.73;3.05;;;;;;;6.49;100.00;102888.47;5074870;28;20052;-46
2024/02/01 09:53:22;;;;;;;16.20;3.65;;;;;;;6.71;100.00;102895.97;5074550;28;20040;-45
2024/02/01 09:55:52;;;;;;;22.23;3.35;;;;;;;6.86;100.00;102898.34;5074837;28;20502;-45
2024/02/01 09:58:21;;;;;;;17.92;3.17;;;;;;;6.93;100.00;102899.09;5074851;28;20040;-47
2024/02/01 10:00:49;;;;;;;17.90;3.72;;;;;;;7.00;100.00;102905.09;5074602;28;20052;-45
2024/02/01 10:03:22;;;;;;;17.52;3.20;;;;;;;7.26;100.00;102915.94;5074913;28;20056;-45
2024/02/01 10:05:54;;;;;;;22.27;4.18;;;;;;;7.43;100.00;102920.88;5074829;28;20446;-45
2024/02/01 10:08:25;;;;;;;19.10;3.20;;;;;;;7.52;100.00;102932.06;5074665;28;20052;-46
2024/02/01 10:10:53;;;;;;;21.08;3.65;;;;;;;7.55;100.00;102932.88;5074833;28;20728;-46
2024/02/01 10:13:30;;;;;;;24.42;3.75;;;;;;;7.69;100.00;102947.44;5074521;28;20090;-45
2024/02/01 10:16:00;;;;;;;21.75;3.17;;;;;;;7.65;100.00;102959.75;5074679;28;20047;-45
2024/02/01 10:18:29;;;;;;;17.77;3.55;;;;;;;7.91;100.00;102968.88;5074704;28;20407;-45
2024/02/01 10:20:59;;;;;;;19.80;3.30;;;;;;;7.89;100.00;102963.63;5074828;28;20102;-46
2024/02/01 10:23:29;;;;;;;18.73;3.13;;;;;;;8.09;100.00;102957.13;5074579;28;20533;-45
2024/02/01 10:25:58;;;;;;;21.08;3.85;;;;;;;8.35;100.00;102963.56;5074401;28;20048;-48
2024/02/01 10:28:34;;;;;;;16.17;2.90;;;;;;;8.20;100.00;102960.38;5074019;28;20044;-45
2024/02/01 10:31:09;;;;;;;20.73;3.10;;;;;;;8.48;100.00;102966.81;5072290;28;20562;-46
2024/02/01 10:33:38;;;;;;;23.23;3.53;;;;;;;8.34;100.00;102961.84;5071040;28;20567;-47
2024/02/01 10:36:12;;;;;;;17.23;3.05;;;;;;;8.38;100.00;102956.50;5072980;28;20067;-45
2024/02/01 10:38:45;;;;;;;16.70;3.20;;;;;;;8.41;100.00;102945.94;5071637;28;20439;-46
2024/02/01 10:41:16;;;;;;;22.45;3.60;;;;;;;8.37;100.00;102948.66;5071362;28;20540;-46
2024/02/01 10:43:46;;;;;;;23.00;3.85;;;;;;;8.31;100.00;102957.53;5074288;28;20427;-45
2024/02/01 10:46:27;;;;;;;19.85;4.10;;;;;;;8.29;100.00;102946.22;5072640;28;20043;-46
2024/02/01 10:49:06;;;;;;;17.98;3.15;;;;;;;8.35;100.00;102955.72;5073759;28;20044;-46
2024/02/01 10:51:39;;;;;;;15.75;3.50;;;;;;;8.32;100.00;102958.38;5073472;28;20053;-47
2024/02/01 10:54:09;;;;;;;20.23;4.05;;;;;;;8.32;100.00;102954.00;5070391;28;20535;-46
2024/02/01 10:56:37;;;;;;;19.70;3.47;;;;;;;8.25;100.00;102950.66;5070018;28;20539;-46
2024/02/01 10:59:08;;;;;;;16.77;3.35;;;;;;;8.25;100.00;102949.81;5071607;28;20048;-57
2024/02/01 11:01:38;;;;;;;20.35;3.80;;;;;;;8.46;100.00;102953.72;5073151;28;20048;-46
2024/02/01 11:04:10;;;;;;;23.93;4.47;;;;;;;8.75;100.00;102949.56;5072183;28;20060;-56
2024/02/01 11:06:48;;;;;;;20.00;3.83;;;;;;;8.89;100.00;102947.47;5070044;28;20072;-56
2024/02/01 11:09:22;;;;;;;16.90;3.80;;;;;;;8.90;100.00;102951.84;5071627;28;20512;-56
2024/02/01 11:11:57;;;;;;;21.98;4.57;;;;;;;8.91;100.00;102945.66;5073231;28;20048;-46
2024/02/01 11:14:27;;;;;;;20.15;4.30;;;;;;;8.81;100.00;102952.06;5072418;28;20047;-45
2024/02/01 11:16:58;;;;;;;20.23;4.45;;;;;;;8.81;100.00;102946.81;5069264;28;20036;-45
2024/02/01 11:19:31;;;;;;;17.90;3.33;;;;;;;8.71;100.00;102948.81;5070016;28;20060;-45
2024/02/01 11:22:07;;;;;;;26.38;4.25;;;;;;;9.07;100.00;102948.78;5071698;28;20037;-46
2024/02/01 11:24:37;;;;;;;20.10;4.53;;;;;;;9.17;100.00;102944.16;5073153;28;20044;-46
2024/02/01 11:27:13;;;;;;;21.75;4.53;;;;;;;9.16;100.00;102931.91;5073159;28;20504;-46
2024/02/01 11:29:46;;;;;;;26.98;3.90;;;;;;;9.22;100.00;102931.78;5071083;28;20047;-46
2024/02/01 11:32:17;;;;;;;18.05;3.72;;;;;;;9.13;100.00;102926.75;5069280;28;20032;-46
2024/02/01 11:34:49;;;;;;;20.38;4.05;;;;;;;9.15;100.00;102948.59;5070032;28;20051;-45
2024/02/01 11:37:20;;;;;;;20.90;3.78;;;;;;;8.83;100.00;102945.00;5067818;28;20577;-47
2024/02/01 11:39:51;;;;;;;19.30;3.13;;;;;;;8.79;100.00;102951.22;5073185;28;20223;-47
2024/02/01 11:42:21;;;;;;;22.33;4.40;;;;;;;8.52;100.00;102955.34;5071752;28;20048;-47
2024/02/01 11:45:00;;;;;;;20.10;3.47;;;;;;;8.63;100.00;102954.22;5069023;28;20045;-47
2024/02/01 11:47:33;;;;;;;22.23;3.65;;;;;;;8.78;100.00;102955.63;5069099;28;20067;-45
2024/02/01 11:50:05;;;;;;;19.40;3.60;;;;;;;8.85;100.00;102956.34;5069958;28;20059;-47
2024/02/01 11:52:43;;;;;;;18.27;3.55;;;;;;;8.85;100.00;102964.19;5072738;28;20064;-46
2024/02/01 11:55:14;;;;;;;16.08;3.33;;;;;;;8.77;100.00;102953.03;5073056;28;20483;-46
2024/02/01 11:57:47;;;;;;;19.52;3.63;;;;;;;8.82;100.00;102952.91;5072894;28;20044;-45
2024/02/01 12:00:18;;;;;;;20.95;3.80;;;;;;;8.89;100.00;102949.22;5071654;28;20131;-50
2024/02/01 12:03:05;;;;;;;20.23;3.70;;;;;;;8.88;100.00;102944.91;5069059;28;20094;-47
2024/02/01 12:05:34;;;;;;;18.85;3.17;;;;;;;8.93;100.00;102949.13;5070134;28;20136;-46
2024/02/01 12:08:06;;;;;;;19.50;3.25;;;;;;;8.94;100.00;102948.25;5072041;28;20143;-45